createdAt,value
2022-09-25T00:01:10.337Z,86.81
2022-09-25T00:06:15.232Z,88.61
2022-09-25T00:11:27.422Z,88.09
2022-09-25T00:16:31.417Z,87.96
2022-09-25T00:21:34.272Z,88.44
2022-09-25T00:26:39.049Z,88.91
2022-09-25T00:31:40.353Z,89.15
2022-09-25T00:36:41.621Z,88.96
2022-09-25T00:41:43.033Z,89.18
2022-09-25T00:46:44.479Z,90.66
2022-09-25T00:51:57.946Z,90.67
2022-09-25T00:57:03.981Z,91.37
2022-09-25T01:02:10.018Z,91.26
2022-09-25T01:07:12.265Z,91.31
2022-09-25T01:12:13.523Z,91.02
2022-09-25T01:17:24.646Z,90.28
2022-09-25T01:23:03.159Z,90.16
2022-09-25T01:28:44.588Z,90.18
2022-09-25T01:33:52.192Z,89.88
2022-09-25T01:38:58.530Z,89.50
2022-09-25T01:44:08.081Z,88.36
2022-09-25T01:49:17.517Z,88.90
2022-09-25T01:54:26.797Z,88.27
2022-09-25T01:59:49.486Z,88.75
2022-09-25T02:05:02.399Z,88.06
2022-09-25T02:10:10.222Z,88.30
2022-09-25T02:15:34.761Z,88.03
2022-09-25T02:20:36.982Z,87.50
2022-09-25T02:25:42.707Z,88.55
2022-09-25T02:30:46.917Z,88.82
2022-09-25T02:35:48.558Z,89.25
2022-09-25T02:41:27.270Z,90.74
2022-09-25T02:47:00.854Z,90.86
2022-09-25T02:52:09.615Z,90.78
2022-09-25T02:57:19.314Z,90.53
2022-09-25T03:02:21.840Z,89.61
2022-09-25T03:07:23.663Z,89.39
2022-09-25T03:12:25.324Z,89.45
2022-09-25T03:17:27.486Z,89.38
2022-09-25T03:22:28.755Z,89.89
2022-09-25T03:27:29.987Z,90.41
2022-09-25T03:32:31.236Z,90.11
2022-09-25T03:37:32.504Z,90.09
2022-09-25T03:42:33.780Z,89.49
2022-09-25T03:47:35.037Z,89.49
2022-09-25T03:52:36.468Z,89.07
2022-09-25T03:57:39.058Z,91.34
2022-09-25T04:02:40.383Z,90.10
2022-09-25T04:07:41.781Z,89.75
2022-09-25T04:12:43.482Z,91.48
2022-09-25T04:17:45.177Z,91.02
2022-09-25T04:22:46.533Z,92.07
2022-09-25T04:27:49.747Z,91.50
2022-09-25T04:33:10.195Z,90.81
2022-09-25T04:38:11.511Z,90.64
2022-09-25T04:43:12.816Z,90.38
2022-09-25T04:48:14.050Z,90.12
2022-09-25T04:53:16.267Z,90.43
2022-09-25T04:58:17.530Z,90.10
2022-09-25T05:03:18.881Z,91.49
2022-09-25T05:08:20.149Z,90.71
2022-09-25T05:13:21.589Z,91.00
2022-09-25T05:18:23.987Z,91.11
2022-09-25T05:23:25.266Z,89.88
2022-09-25T05:28:26.514Z,90.53
2022-09-25T05:33:28.165Z,90.10
2022-09-25T05:38:32.016Z,89.63
2022-09-25T05:43:34.727Z,89.34
2022-09-25T05:48:36.458Z,89.59
2022-09-25T05:53:38.140Z,89.68
2022-09-25T05:58:39.425Z,89.79
2022-09-25T06:03:41.739Z,90.15
2022-09-25T06:08:43.121Z,89.85
2022-09-25T06:13:49.536Z,89.97
2022-09-25T06:18:53.258Z,90.87
2022-09-25T06:23:55.195Z,90.54
2022-09-25T06:29:02.337Z,90.41
2022-09-25T06:34:05.683Z,90.17
2022-09-25T06:39:07.004Z,90.03
2022-09-25T06:44:09.268Z,90.28
2022-09-25T06:49:13.077Z,90.83
2022-09-25T06:54:14.389Z,90.61
2022-09-25T06:59:16.655Z,89.78
2022-09-25T07:04:18.471Z,90.80
2022-09-25T07:09:19.732Z,90.40
2022-09-25T07:14:21.799Z,89.92
2022-09-25T07:19:27.558Z,90.11
2022-09-25T07:24:29.988Z,89.91
2022-09-25T07:29:31.526Z,89.26
2022-09-25T07:34:35.066Z,89.01
2022-09-25T07:39:36.600Z,88.97
2022-09-25T07:44:41.521Z,89.33
2022-09-25T07:49:45.315Z,89.04
2022-09-25T07:54:46.554Z,89.41
2022-09-25T07:59:47.807Z,90.32
2022-09-25T08:04:49.039Z,90.25
2022-09-25T08:09:50.310Z,89.83
2022-09-25T08:14:52.625Z,89.45
2022-09-25T08:19:53.881Z,89.75
2022-09-25T08:24:55.302Z,89.58
2022-09-25T08:29:56.978Z,88.66
2022-09-25T08:34:58.240Z,88.81
2022-09-25T08:40:00.674Z,89.76
2022-09-25T08:45:24.730Z,89.35
2022-09-25T08:50:27.027Z,89.06
2022-09-25T08:55:50.085Z,88.50
2022-09-25T09:00:58.823Z,88.43
2022-09-25T09:06:11.881Z,88.32
2022-09-25T09:11:19.706Z,87.79
2022-09-25T09:16:30.580Z,87.90
2022-09-25T09:22:09.126Z,87.86
2022-09-25T09:27:28.698Z,88.46
2022-09-25T09:33:04.294Z,88.28
2022-09-25T09:38:20.974Z,88.26
2022-09-25T09:43:54.926Z,88.16
2022-09-25T09:49:10.562Z,87.75
2022-09-25T09:54:31.975Z,86.45
2022-09-25T09:59:49.099Z,85.27
2022-09-25T10:04:52.908Z,83.40
2022-09-25T10:09:54.726Z,80.13
2022-09-25T10:14:58.580Z,80.00
2022-09-25T10:20:04.323Z,77.39
2022-09-25T10:25:06.778Z,77.14
2022-09-25T10:30:10.979Z,78.07
2022-09-25T10:35:18.915Z,79.95
2022-09-25T10:40:27.013Z,78.97
2022-09-25T10:45:34.260Z,78.23
2022-09-25T10:50:38.370Z,77.89
2022-09-25T10:55:46.169Z,78.86
2022-09-25T11:00:51.282Z,78.52
2022-09-25T11:05:55.574Z,78.52
2022-09-25T11:10:58.861Z,76.42
2022-09-25T11:16:01.698Z,78.95
2022-09-25T11:21:05.619Z,76.52
2022-09-25T11:26:12.469Z,76.62
2022-09-25T11:31:30.233Z,73.62
2022-09-25T11:36:46.411Z,73.29
2022-09-25T11:41:57.920Z,73.80
2022-09-25T11:47:33.822Z,72.55
2022-09-25T11:53:09.931Z,71.04
2022-09-25T11:58:15.658Z,71.68
2022-09-25T12:03:54.370Z,71.53
2022-09-25T12:08:57.090Z,72.05
2022-09-25T12:14:10.318Z,71.54
2022-09-25T12:19:36.633Z,71.30
2022-09-25T12:25:00.610Z,70.93
2022-09-25T12:30:23.812Z,70.20
2022-09-25T12:35:38.273Z,72.40
2022-09-25T12:41:08.112Z,70.24
2022-09-25T12:46:37.617Z,71.90
2022-09-25T12:51:43.306Z,72.22
2022-09-25T12:56:59.633Z,71.51
2022-09-25T13:02:16.258Z,71.89
2022-09-25T13:07:51.765Z,70.74
2022-09-25T13:12:56.714Z,68.58
2022-09-25T13:17:59.189Z,68.51
2022-09-25T13:23:14.840Z,67.82
2022-09-25T13:28:23.460Z,68.59
2022-09-25T13:33:25.354Z,69.41
2022-09-25T13:38:45.789Z,69.99
2022-09-25T13:43:49.939Z,69.37
2022-09-25T13:48:52.544Z,70.39
2022-09-25T13:54:00.155Z,70.84
2022-09-25T13:59:20.855Z,71.94
2022-09-25T14:04:22.246Z,73.04
2022-09-25T14:09:28.138Z,73.56
2022-09-25T14:14:38.876Z,73.50
2022-09-25T14:19:43.809Z,74.06
2022-09-25T14:24:45.476Z,75.44
2022-09-25T14:29:46.985Z,76.05
2022-09-25T14:35:04.931Z,74.19
2022-09-25T14:40:28.248Z,76.66
2022-09-25T14:45:39.026Z,75.60
2022-09-25T14:50:47.221Z,76.28
2022-09-25T14:55:53.033Z,76.32
2022-09-25T15:01:13.624Z,75.28
2022-09-25T15:06:29.602Z,74.71
2022-09-25T15:11:43.023Z,73.34
2022-09-25T15:17:02.834Z,75.58
2022-09-25T15:22:20.258Z,75.32
2022-09-25T15:27:22.644Z,73.55
2022-09-25T15:32:29.877Z,73.67
2022-09-25T15:37:31.161Z,73.26
2022-09-25T15:42:32.897Z,73.06
2022-09-25T15:47:34.256Z,74.50
2022-09-25T15:52:35.776Z,73.79
2022-09-25T15:57:37.324Z,72.74
2022-09-25T16:03:12.557Z,73.53
2022-09-25T16:08:36.390Z,72.80
2022-09-25T16:13:41.475Z,70.73
2022-09-25T16:18:42.758Z,71.98
2022-09-25T16:23:55.789Z,72.57
2022-09-25T16:29:19.047Z,72.02
2022-09-25T16:34:30.977Z,71.67
2022-09-25T16:39:35.991Z,71.42
2022-09-25T16:44:42.110Z,72.40
2022-09-25T16:49:44.653Z,72.24
2022-09-25T16:54:54.635Z,71.72
2022-09-25T16:59:55.978Z,72.28
2022-09-25T17:04:57.397Z,74.44
2022-09-25T17:10:00.848Z,73.87
2022-09-25T17:15:02.178Z,75.12
2022-09-25T17:20:03.789Z,75.07
2022-09-25T17:25:21.878Z,74.69
2022-09-25T17:30:23.142Z,74.94
2022-09-25T17:35:35.211Z,75.09
2022-09-25T17:40:36.753Z,75.04
2022-09-25T17:45:56.134Z,76.08
2022-09-25T17:51:03.719Z,74.72
2022-09-25T17:56:05.089Z,75.65
2022-09-25T18:01:14.419Z,75.17
2022-09-25T18:06:15.711Z,75.28
2022-09-25T18:11:17.848Z,75.99
2022-09-25T18:16:23.100Z,76.01
2022-09-25T18:21:43.366Z,75.33
2022-09-25T18:26:45.410Z,75.39
2022-09-25T18:31:47.472Z,74.13
2022-09-25T18:36:51.962Z,75.16
2022-09-25T18:41:53.408Z,75.82
2022-09-25T18:46:55.588Z,74.72
2022-09-25T18:51:57.056Z,75.15
2022-09-25T18:56:58.808Z,76.00
2022-09-25T19:02:00.257Z,75.92
2022-09-25T19:07:01.652Z,75.62
2022-09-25T19:12:03.843Z,75.27
2022-09-25T19:17:05.310Z,75.08
2022-09-25T19:22:08.314Z,75.29
2022-09-25T19:27:11.102Z,76.21
2022-09-25T19:32:14.728Z,75.47
2022-09-25T19:37:15.977Z,74.59
2022-09-25T19:42:17.326Z,75.98
2022-09-25T19:47:18.889Z,77.24
2022-09-25T19:52:22.239Z,77.02
2022-09-25T19:57:23.561Z,78.08
2022-09-25T20:02:24.859Z,79.16
2022-09-25T20:07:26.122Z,78.56
2022-09-25T20:12:27.484Z,78.99
2022-09-25T20:17:28.810Z,79.53
2022-09-25T20:22:31.450Z,79.18
2022-09-25T20:27:32.715Z,80.13
2022-09-25T20:32:35.072Z,80.24
2022-09-25T20:37:36.559Z,80.03
2022-09-25T20:42:37.838Z,80.95
2022-09-25T20:47:45.893Z,81.20
2022-09-25T20:52:47.551Z,81.08
2022-09-25T20:57:48.794Z,80.40
2022-09-25T21:02:50.194Z,80.84
2022-09-25T21:07:51.635Z,81.03
2022-09-25T21:12:52.945Z,81.30
2022-09-25T21:17:54.579Z,80.74
2022-09-25T21:22:55.939Z,81.88
2022-09-25T21:27:57.416Z,80.88
2022-09-25T21:32:58.927Z,81.57
2022-09-25T21:38:00.209Z,81.56
2022-09-25T21:43:01.475Z,82.16
2022-09-25T21:48:02.719Z,82.05
2022-09-25T21:53:04.294Z,82.42
2022-09-25T21:58:05.524Z,82.79
2022-09-25T22:03:09.168Z,82.44
2022-09-25T22:08:10.726Z,82.17
2022-09-25T22:13:12.015Z,83.51
2022-09-25T22:18:13.285Z,81.83
2022-09-25T22:23:14.530Z,84.02
2022-09-25T22:28:15.841Z,83.98
2022-09-25T22:33:17.133Z,84.63
2022-09-25T22:38:18.382Z,84.81
2022-09-25T22:43:19.678Z,84.71
2022-09-25T22:48:22.157Z,84.74
2022-09-25T22:53:24.667Z,86.16
2022-09-25T22:58:26.589Z,86.37
2022-09-25T23:03:28.702Z,86.61
2022-09-25T23:08:30.672Z,85.88
2022-09-25T23:13:33.118Z,86.42
2022-09-25T23:18:36.213Z,85.87
2022-09-25T23:23:37.924Z,86.01
2022-09-25T23:28:40.833Z,86.07
2022-09-25T23:33:43.348Z,86.33
2022-09-25T23:38:45.383Z,85.84
2022-09-25T23:43:48.362Z,85.35
2022-09-25T23:48:49.933Z,85.90
2022-09-25T23:53:51.905Z,84.81
2022-09-25T23:58:55.118Z,84.10
